.
WxDataArchive / Data Records for 2009-06-30
2009-06-29 June 2009 2009-07-01

Data Records for Tuesday, 30 June 2009

Time	Temp	Chill	HIndex	Humid	Dewpt	 Wind 	HiWind	WindDir	Rain 	Barom 
-----	----	-----	------	-----	-----	------	------	-------	-----	----- 
00:00	67.1	67.1	67.1	63	54.1	0	2	292	0.00	29.556 
00:05	67.1	67.1	67.1	64	54.5	0	1	292	0.00	29.556 
00:10	67.1	67.1	67.1	64	54.5	0	1	292	0.00	29.556 
00:15	66.9	66.9	66.9	64	54.3	0	1	292	0.00	29.558 
00:20	66.9	66.9	66.9	64	54.3	0	1	292	0.00	29.558 
00:25	66.8	66.8	66.8	65	54.6	0	2	292	0.00	29.558 
00:30	66.8	66.8	66.8	65	54.6	0	2	292	0.00	29.558 
00:35	66.9	66.9	66.9	65	54.7	1	2	292	0.00	29.558 
00:40	66.8	66.8	66.8	65	54.6	0	2	292	0.00	29.558 
00:45	66.8	66.8	66.8	65	54.6	0	3	292	0.00	29.554 
00:50	66.8	66.8	66.8	65	54.6	0	1	292	0.00	29.554 
00:55	66.8	66.8	66.8	65	54.6	0	1	292	0.00	29.554 
01:00	66.8	66.8	66.8	65	54.6	1	2	292	0.00	29.555 
01:05	66.8	66.8	66.8	65	54.6	0	2	292	0.00	29.555 
01:10	66.6	66.6	66.6	65	54.5	0	2	292	0.00	29.555 
01:15	66.4	66.4	66.4	65	54.3	0	2	315	0.00	29.556 
01:20	66.3	66.3	66.3	66	54.6	1	3	315	0.00	29.556 
01:25	66.1	66.1	66.1	66	54.4	1	3	315	0.00	29.556 
01:30	66.0	66.0	66.0	66	54.3	1	4	292	0.00	29.554 
01:35	66.0	66.0	66.0	67	54.7	1	4	292	0.00	29.554 
01:40	66.0	66.0	66.0	67	54.7	1	4	315	0.00	29.554 
01:45	65.8	65.8	65.8	67	54.5	1	3	315	0.00	29.547 
01:50	65.6	65.6	65.6	68	54.7	0	2	315	0.00	29.547 
01:55	65.5	65.5	65.5	69	55.1	1	2	315	0.00	29.547 
02:00	65.5	65.5	65.5	69	55.1	1	2	315	0.00	29.544 
02:05	65.3	65.3	65.3	69	54.9	0	2	315	0.00	29.544 
02:10	65.2	65.2	65.2	70	55.2	1	3	315	0.00	29.544 
02:15	65.2	65.2	65.2	70	55.2	0	3	315	0.00	29.544 
02:20	65.0	65.0	65.0	71	55.4	0	2	315	0.00	29.544 
02:25	64.8	64.8	64.8	72	55.6	1	2	315	0.00	29.544 
02:30	64.8	64.8	64.8	72	55.6	1	4	270	0.00	29.546 
02:35	64.7	64.7	64.7	72	55.5	1	3	270	0.00	29.546 
02:40	64.5	64.5	64.5	73	55.6	0	2	270	0.00	29.546 
02:45	64.5	64.5	64.5	73	55.6	0	2	292	0.00	29.544 
02:50	64.3	64.3	64.3	73	55.5	1	3	292	0.00	29.544 
02:55	64.3	64.3	64.3	74	55.8	0	2	292	0.00	29.544 
03:00	64.2	64.2	64.2	74	55.7	1	4	292	0.00	29.546 
03:05	64.2	64.2	64.2	75	56.1	0	1	292	0.00	29.546 
03:10	64.0	64.0	64.0	76	56.3	1	3	292	0.00	29.546 
03:15	63.9	63.9	63.9	77	56.5	1	3	292	0.00	29.548 
03:20	63.7	63.7	63.7	77	56.3	1	3	292	0.00	29.548 
03:25	63.5	63.5	63.5	77	56.2	1	3	292	0.00	29.548 
03:30	63.5	63.5	63.5	78	56.5	1	5	270	0.00	29.547 
03:35	63.4	63.4	63.4	78	56.4	1	3	270	0.00	29.547 
03:40	63.2	63.2	63.2	79	56.6	1	3	292	0.00	29.547 
03:45	63.2	63.2	63.2	79	56.6	1	3	292	0.00	29.547 
03:50	63.1	63.1	63.1	80	56.8	1	3	292	0.00	29.547 
03:55	63.1	63.1	63.1	80	56.8	1	3	292	0.00	29.547 
04:00	62.9	62.9	62.9	81	57.0	2	4	270	0.00	29.544 
04:05	62.9	62.9	62.9	81	57.0	1	3	270	0.00	29.544 
04:10	62.7	62.7	62.7	81	56.8	0	2	292	0.00	29.544 
04:15	62.7	62.7	62.7	81	56.8	1	4	292	0.00	29.545 
04:20	62.7	62.7	62.7	82	57.1	1	2	292	0.00	29.545 
04:25	62.7	62.7	62.7	82	57.1	0	2	292	0.00	29.545 
04:30	62.6	62.6	62.6	82	57.0	0	2	292	0.00	29.550 
04:35	62.6	62.6	62.6	82	57.0	1	4	315	0.00	29.550 
04:40	62.6	62.6	62.6	82	57.0	1	2	270	0.00	29.550 
04:45	62.4	62.4	62.4	83	57.2	1	4	270	0.00	29.552 
04:50	62.4	62.4	62.4	83	57.2	0	2	270	0.00	29.552 
04:55	62.4	62.4	62.4	83	57.2	1	3	270	0.00	29.552 
05:00	62.4	62.4	62.4	83	57.2	1	2	270	0.00	29.560 
05:05	62.4	62.4	62.4	83	57.2	1	3	270	0.00	29.560 
05:10	62.4	62.4	62.4	83	57.2	1	3	270	0.00	29.560 
05:15	62.3	62.3	62.3	82	56.7	1	4	292	0.00	29.565 
05:20	62.3	62.3	62.3	82	56.7	1	3	292	0.00	29.565 
05:25	62.1	62.1	62.1	82	56.5	1	4	292	0.00	29.565 
05:30	62.0	62.0	62.0	82	56.4	0	2	315	0.00	29.565 
05:35	61.8	61.8	61.8	82	56.2	0	2	315	0.00	29.565 
05:40	61.6	61.6	61.6	82	56.0	0	3	315	0.00	29.565 
05:45	61.5	61.5	61.5	82	55.9	0	2	315	0.00	29.565 
05:50	61.3	61.3	61.3	82	55.8	0	1	315	0.00	29.565 
05:55	61.2	61.2	61.2	83	56.0	0	1	315	0.00	29.565 
06:00	61.0	61.0	61.0	83	55.8	0	1	315	0.00	29.567 
06:05	60.9	60.9	60.9	84	56.0	0	1	315	0.00	29.567 
06:10	60.9	60.9	60.9	84	56.0	0	1	315	0.00	29.567 
06:15	60.9	60.9	60.9	84	56.0	0	2	315	0.00	29.571 
06:20	60.9	60.9	60.9	85	56.4	0	1	315	0.00	29.571 
06:25	60.9	60.9	60.9	85	56.4	0	2	315	0.00	29.571 
06:30	60.9	60.9	60.9	85	56.4	0	2	315	0.00	29.579 
06:35	61.0	61.0	61.0	85	56.5	0	1	315	0.00	29.579 
06:40	61.0	61.0	61.0	85	56.5	0	1	315	0.00	29.579 
06:45	61.0	61.0	61.0	85	56.5	0	2	315	0.00	29.582 
06:50	61.2	61.2	61.2	85	56.6	1	3	292	0.00	29.582 
06:55	61.2	61.2	61.2	85	56.6	0	2	292	0.00	29.582 
07:00	61.3	61.3	61.3	85	56.7	1	3	292	0.00	29.584 
07:05	61.3	61.3	61.3	85	56.7	1	3	225	0.00	29.584 
07:10	61.3	61.3	61.3	85	56.7	1	3	225	0.00	29.584 
07:15	61.3	61.3	61.3	85	56.7	0	3	225	0.00	29.583 
07:20	61.5	61.5	61.5	85	56.9	0	2	270	0.00	29.583 
07:25	61.3	61.3	61.3	86	57.1	1	3	270	0.00	29.583 
07:30	61.3	61.3	61.3	86	57.1	0	2	270	0.00	29.583 
07:35	61.3	61.3	61.3	86	57.1	1	2	315	0.00	29.583 
07:40	61.5	61.5	61.5	86	57.3	0	3	315	0.00	29.583 
07:45	61.6	61.6	61.6	85	57.0	1	3	315	0.00	29.583 
07:50	61.6	61.6	61.6	85	57.0	1	3	270	0.00	29.583 
07:55	61.8	61.8	61.8	85	57.2	0	1	292	0.00	29.583 
08:00	62.0	62.0	62.0	85	57.4	0	2	292	0.00	29.584 
08:05	61.8	61.8	61.8	83	56.6	1	3	315	0.00	29.584 
08:10	61.8	61.8	61.8	84	56.9	1	3	315	0.00	29.584 
08:15	61.5	61.5	61.5	84	56.6	1	3	315	0.00	29.587 
08:20	61.3	61.3	61.3	85	56.7	1	4	292	0.00	29.587 
08:25	61.3	61.3	61.3	84	56.4	2	5	292	0.00	29.587 
08:30	61.3	61.3	61.3	84	56.4	2	4	270	0.00	29.590 
08:35	61.3	61.3	61.3	83	56.1	1	4	315	0.00	29.590 
08:40	61.5	61.5	61.5	82	55.9	0	3	292	0.00	29.590 
08:45	61.6	61.6	61.6	81	55.7	1	3	315	0.00	29.596 
08:50	62.0	62.0	62.0	81	56.1	1	4	315	0.00	29.596 
08:55	62.3	62.3	62.3	80	56.0	1	4	315	0.00	29.596 
09:00	62.4	62.4	62.4	80	56.1	1	3	315	0.00	29.598 
09:05	62.7	62.7	62.7	79	56.1	1	4	315	0.00	29.598 
09:10	63.1	63.1	63.1	78	56.1	1	3	270	0.00	29.598 
09:15	63.2	63.2	63.2	78	56.2	1	3	292	0.00	29.596 
09:20	63.5	63.5	63.5	78	56.5	1	6	270	0.00	29.596 
09:25	63.9	63.9	63.9	76	56.2	1	3	270	0.00	29.596 
09:30	64.0	64.0	64.0	75	55.9	2	4	270	0.00	29.595 
09:35	64.2	64.2	64.2	73	55.4	2	10	315	0.00	29.595 
09:40	64.3	64.3	64.3	71	54.7	2	6	270	0.00	29.595 
09:45	64.3	64.3	64.3	71	54.7	2	5	270	0.00	29.592 
09:50	64.7	64.7	64.7	71	55.1	2	4	292	0.00	29.592 
09:55	65.6	65.6	65.6	69	55.1	2	7	315	0.00	29.592 
10:00	66.1	66.1	66.1	68	55.2	2	4	315	0.00	29.593 
10:05	66.4	66.4	66.4	67	55.1	1	5	315	0.00	29.593 
10:10	66.3	66.3	66.3	67	55.0	2	5	270	0.00	29.593 
10:15	66.0	66.0	66.0	66	54.3	2	5	315	0.00	29.595 
10:20	65.5	65.5	65.5	69	55.1	2	5	270	0.00	29.595 
10:25	65.5	65.5	65.5	69	55.1	2	4	315	0.00	29.595 
10:30	65.5	65.5	65.5	69	55.1	3	5	292	0.00	29.598 
10:35	65.0	65.0	65.0	71	55.4	3	5	270	0.00	29.598 
10:40	65.6	65.6	65.6	72	56.3	2	4	315	0.00	29.598 
10:45	66.0	66.0	66.0	68	55.1	2	5	315	0.00	29.598 
10:50	66.4	66.4	66.4	68	55.5	2	4	270	0.00	29.598 
10:55	66.8	66.8	66.8	67	55.5	2	4	338	0.00	29.598 
11:00	66.0	66.0	66.0	69	55.5	3	6	315	0.00	29.598 
11:05	65.3	65.3	65.3	69	54.9	3	6	292	0.00	29.598 
11:10	65.6	65.6	65.6	71	55.9	2	5	292	0.00	29.598 
11:15	66.1	66.1	66.1	67	54.8	3	6	315	0.00	29.601 
11:20	66.1	66.1	66.1	67	54.8	3	6	292	0.00	29.601 
11:25	66.6	66.6	66.6	66	54.9	2	5	270	0.00	29.601 
11:30	67.8	67.8	67.8	66	56.0	1	4	270	0.00	29.599 
11:35	68.4	68.4	68.4	62	54.9	2	4	315	0.00	29.599 
11:40	68.1	68.1	68.1	64	55.5	2	6	292	0.00	29.599 
11:45	67.4	67.4	67.4	64	54.8	3	6	270	0.00	29.603 
11:50	66.8	66.8	66.8	66	55.1	2	6	292	0.00	29.603 
11:55	66.1	66.1	66.1	67	54.8	2	4	270	0.00	29.603 
12:00	65.8	65.8	65.8	67	54.5	2	4	315	0.00	29.614 
12:05	65.8	65.8	65.8	68	54.9	1	4	315	0.00	29.614 
12:10	66.4	66.4	66.4	67	55.1	2	4	270	0.00	29.614 
12:15	66.9	66.9	66.9	67	55.6	2	4	292	0.00	29.614 
12:20	67.3	67.3	67.3	64	54.7	2	5	315	0.00	29.614 
12:25	67.8	67.8	67.8	66	56.0	3	5	270	0.00	29.614 
12:30	68.9	68.9	68.9	63	55.8	2	5	270	0.00	29.611 
12:35	69.9	69.9	69.9	63	56.7	2	5	270	0.00	29.611 
12:40	69.6	69.6	69.6	60	55.1	2	5	270	0.00	29.611 
12:45	68.6	68.6	68.6	61	54.6	2	5	292	0.00	29.613 
12:50	67.9	67.9	67.9	62	54.4	2	4	292	0.00	29.613 
12:55	67.3	67.3	67.3	63	54.3	2	6	315	0.00	29.613 
13:00	67.3	67.3	67.3	64	54.7	2	5	270	0.00	29.615 
13:05	67.6	67.6	67.6	62	54.1	3	5	292	0.00	29.615 
13:10	67.8	67.8	67.8	60	53.4	4	6	270	0.00	29.615 
13:15	67.8	67.8	67.8	62	54.3	3	6	315	0.00	29.615 
13:20	67.6	67.6	67.6	61	53.7	3	5	270	0.00	29.615 
13:25	67.3	67.3	67.3	62	53.8	2	5	270	0.00	29.615 
13:30	67.8	67.8	67.8	62	54.3	2	5	270	0.00	29.615 
13:35	68.1	68.1	68.1	60	53.7	2	4	270	0.00	29.615 
13:40	68.4	68.4	68.4	61	54.4	2	5	270	0.00	29.615 
13:45	68.4	68.4	68.4	59	53.5	3	6	270	0.00	29.616 
13:50	68.3	68.3	68.3	61	54.3	2	7	315	0.00	29.616 
13:55	68.4	68.4	68.4	61	54.4	3	4	315	0.00	29.616 
14:00	68.6	68.6	68.6	58	53.2	3	7	315	0.00	29.617 
14:05	68.8	68.8	68.8	60	54.3	2	5	292	0.00	29.617 
14:10	69.1	69.1	69.1	58	53.7	2	5	292	0.00	29.617 
14:15	69.4	69.4	69.4	58	54.0	2	4	270	0.00	29.620 
14:20	69.6	69.6	69.6	58	54.2	2	4	292	0.00	29.620 
14:25	70.3	70.3	70.3	56	53.8	3	6	315	0.00	29.620 
14:30	69.8	69.8	69.8	56	53.4	3	9	270	0.00	29.617 
14:35	69.3	69.3	69.3	57	53.4	2	6	270	0.00	29.617 
14:40	68.9	68.9	68.9	58	53.5	2	4	270	0.00	29.617 
14:45	68.4	68.4	68.4	58	53.0	3	6	270	0.00	29.624 
14:50	68.8	68.8	68.8	57	52.9	3	6	315	0.00	29.624 
14:55	68.8	68.8	68.8	57	52.9	2	4	315	0.00	29.624 
15:00	69.1	69.1	69.1	58	53.7	2	4	315	0.00	29.620 
15:05	70.1	70.1	70.1	56	53.7	2	5	292	0.00	29.620 
15:10	70.9	70.9	70.9	54	53.4	2	4	248	0.00	29.620 
15:15	70.4	70.4	70.4	52	51.9	3	6	270	0.00	29.624 
15:20	70.3	70.3	70.3	53	52.3	2	6	315	0.00	29.624 
15:25	70.3	70.3	70.3	53	52.3	3	5	315	0.00	29.624 
15:30	70.9	70.9	70.9	53	52.9	2	5	292	0.00	29.621 
15:35	71.8	71.8	71.8	51	52.7	3	6	270	0.00	29.621 
15:40	72.5	72.5	72.5	51	53.3	3	5	270	0.00	29.621 
15:45	72.5	72.5	72.5	50	52.8	3	5	270	0.00	29.621 
15:50	72.0	72.0	72.0	53	53.9	1	3	315	0.00	29.621 
15:55	71.6	71.6	71.6	51	52.5	3	5	270	0.00	29.621 
16:00	72.5	72.5	72.5	51	53.3	2	5	248	0.00	29.618 
16:05	71.8	71.8	71.8	52	53.2	3	6	270	0.00	29.618 
16:10	72.1	72.1	72.1	51	53.0	2	5	315	0.00	29.618 
16:15	72.3	72.3	72.3	50	52.6	2	6	315	0.00	29.617 
16:20	72.1	72.1	72.1	51	53.0	2	5	315	0.00	29.617 
16:25	72.1	72.1	72.1	52	53.5	1	4	292	0.00	29.617 
16:30	71.6	71.6	71.6	52	53.0	1	3	292	0.00	29.616 
16:35	71.1	71.1	71.1	54	53.6	1	4	315	0.00	29.616 
16:40	71.5	71.5	71.5	53	53.5	2	4	270	0.00	29.616 
16:45	71.3	71.3	71.3	52	52.8	2	4	292	0.00	29.616 
16:50	71.5	71.5	71.5	53	53.5	3	7	270	0.00	29.616 
16:55	71.3	71.3	71.3	54	53.8	1	4	315	0.00	29.616 
17:00	72.0	72.0	72.0	52	53.4	2	7	315	0.00	29.616 
17:05	72.3	72.3	72.3	52	53.7	1	4	292	0.00	29.616 
17:10	73.0	73.0	73.0	52	54.3	1	4	270	0.00	29.616 
17:15	72.5	72.5	72.5	51	53.3	3	5	270	0.00	29.621 
17:20	72.1	72.1	72.1	53	54.0	1	5	315	0.00	29.621 
17:25	72.0	72.0	72.0	50	52.3	2	4	315	0.00	29.621 
17:30	72.0	72.0	72.0	51	52.9	2	4	292	0.00	29.626 
17:35	72.1	72.1	72.1	52	53.5	2	5	292	0.00	29.626 
17:40	72.1	72.1	72.1	50	52.4	3	5	270	0.00	29.626 
17:45	71.8	71.8	71.8	51	52.7	2	5	270	0.00	29.627 
17:50	71.6	71.6	71.6	54	54.1	2	4	270	0.00	29.627 
17:55	70.9	70.9	70.9	54	53.4	1	6	292	0.00	29.627 
18:00	70.4	70.4	70.4	55	53.4	2	4	315	0.00	29.631 
18:05	70.3	70.3	70.3	55	53.4	1	3	315	0.00	29.631 
18:10	70.3	70.3	70.3	55	53.4	2	6	315	0.00	29.631 
18:15	70.1	70.1	70.1	54	52.7	1	5	270	0.00	29.633 
18:20	70.1	70.1	70.1	56	53.7	1	3	270	0.00	29.633 
18:25	69.9	69.9	69.9	56	53.5	1	4	270	0.00	29.633 
18:30	69.6	69.6	69.6	56	53.2	1	4	270	0.00	29.635 
18:35	69.3	69.3	69.3	57	53.4	1	5	292	0.00	29.635 
18:40	68.9	68.9	68.9	57	53.0	1	4	315	0.00	29.635 
18:45	68.9	68.9	68.9	58	53.5	1	3	315	0.00	29.643 
18:50	68.9	68.9	68.9	58	53.5	1	3	315	0.00	29.643 
18:55	68.8	68.8	68.8	58	53.4	2	4	292	0.00	29.643 
19:00	68.6	68.6	68.6	58	53.2	1	5	270	0.00	29.647 
19:05	68.4	68.4	68.4	59	53.5	0	2	270	0.00	29.647 
19:10	68.4	68.4	68.4	60	54.0	1	4	315	0.00	29.647 
19:15	68.3	68.3	68.3	60	53.9	1	3	315	0.00	29.652 
19:20	68.1	68.1	68.1	61	54.1	1	4	292	0.00	29.652 
19:25	67.8	67.8	67.8	61	53.9	1	4	292	0.00	29.652 
19:30	67.6	67.6	67.6	62	54.1	0	1	292	0.00	29.653 
19:35	67.6	67.6	67.6	62	54.1	0	3	292	0.00	29.653 
19:40	67.4	67.4	67.4	62	53.9	1	2	292	0.00	29.653 
19:45	67.4	67.4	67.4	62	53.9	1	2	292	0.00	29.656 
19:50	67.3	67.3	67.3	62	53.8	1	3	270	0.00	29.656 
19:55	67.1	67.1	67.1	61	53.2	0	3	292	0.00	29.656 
20:00	66.9	66.9	66.9	62	53.4	1	3	292	0.00	29.665 
20:05	66.8	66.8	66.8	62	53.4	1	3	338	0.00	29.665 
20:10	66.6	66.6	66.6	62	53.2	1	3	315	0.00	29.665 
20:15	66.6	66.6	66.6	63	53.6	0	2	315	0.00	29.667 
20:20	66.4	66.4	66.4	63	53.4	0	3	270	0.00	29.667 
20:25	66.4	66.4	66.4	63	53.4	1	2	338	0.00	29.667 
20:30	66.3	66.3	66.3	63	53.3	0	1	338	0.00	29.665 
20:35	66.1	66.1	66.1	63	53.1	1	4	315	0.00	29.665 
20:40	66.1	66.1	66.1	63	53.1	1	3	315	0.00	29.665 
20:45	66.0	66.0	66.0	64	53.5	0	3	315	0.00	29.664 
20:50	66.0	66.0	66.0	64	53.5	1	4	315	0.00	29.664 
20:55	65.8	65.8	65.8	64	53.3	1	3	270	0.00	29.664 
21:00	65.6	65.6	65.6	64	53.1	0	2	270	0.00	29.664 
21:05	65.6	65.6	65.6	65	53.5	0	2	270	0.00	29.664 
21:10	65.6	65.6	65.6	65	53.5	0	3	270	0.00	29.664 
21:15	65.5	65.5	65.5	65	53.4	1	3	270	0.00	29.661 
21:20	65.3	65.3	65.3	65	53.2	0	1	270	0.00	29.661 
21:25	65.2	65.2	65.2	65	53.1	0	1	270	0.00	29.661 
21:30	65.0	65.0	65.0	65	52.9	0	2	292	0.00	29.661 
21:35	64.8	64.8	64.8	65	52.8	0	3	315	0.00	29.661 
21:40	64.8	64.8	64.8	66	53.2	0	1	315	0.00	29.661 
21:45	64.7	64.7	64.7	66	53.1	0	2	315	0.00	29.664 
21:50	64.7	64.7	64.7	67	53.5	0	1	315	0.00	29.664 
21:55	64.5	64.5	64.5	67	53.3	0	3	315	0.00	29.664 
22:00	64.3	64.3	64.3	67	53.1	0	2	315	0.00	29.665 
22:05	64.3	64.3	64.3	67	53.1	0	1	315	0.00	29.665 
22:10	64.3	64.3	64.3	68	53.5	0	1	315	0.00	29.665 
22:15	64.2	64.2	64.2	67	53.0	0	1	315	0.00	29.669 
22:20	64.2	64.2	64.2	67	53.0	0	3	315	0.00	29.669 
22:25	64.2	64.2	64.2	67	53.0	0	1	315	0.00	29.669 
22:30	64.2	64.2	64.2	68	53.4	0	2	315	0.00	29.669 
22:35	64.2	64.2	64.2	67	53.0	0	2	315	0.00	29.669 
22:40	64.0	64.0	64.0	67	52.8	0	1	315	0.00	29.669 
22:45	64.0	64.0	64.0	68	53.2	0	1	315	0.00	29.675 
22:50	64.0	64.0	64.0	68	53.2	0	2	315	0.00	29.675 
22:55	64.0	64.0	64.0	68	53.2	0	1	315	0.00	29.675 
23:00	63.9	63.9	63.9	68	53.1	0	0	---	0.00	29.679 
23:05	63.9	63.9	63.9	69	53.5	0	1	315	0.00	29.679 
23:10	63.9	63.9	63.9	69	53.5	0	0	---	0.00	29.679 
23:15	63.7	63.7	63.7	69	53.3	0	1	315	0.00	29.678 
23:20	63.7	63.7	63.7	69	53.3	0	2	315	0.00	29.678 
23:25	63.5	63.5	63.5	68	52.7	0	1	315	0.00	29.678 
23:30	63.5	63.5	63.5	68	52.7	0	1	315	0.00	29.678 
23:35	63.5	63.5	63.5	69	53.1	0	1	315	0.00	29.678 
23:40	63.5	63.5	63.5	69	53.1	0	1	315	0.00	29.678 
23:45	63.4	63.4	63.4	69	53.0	0	1	315	0.00	29.681 
23:50	63.4	63.4	63.4	69	53.0	0	1	315	0.00	29.681 
23:55	63.4	63.4	63.4	70	53.4	0	0	---	0.00	29.681 

CoCoRaHS
IN-AL-39
A2 Web Hosting
Creative Commons License
GoDaddy
search engine by freefind advanced

loaded 2018-11-18 11:44:46 • last modified 2010-11-18 10:43:29
Privacy PolicyDisclaimer
• wx.awcolley.com is powered by PmWiki v.2002016 •
• all content (unless otherwise noted) © 2018 A W Colley